createdAt,value
2023-11-30T00:00:22.064Z,4.10
2023-11-30T00:03:09.061Z,4.14
2023-11-30T00:05:36.825Z,4.15
2023-11-30T00:08:03.721Z,4.12
2023-11-30T00:10:30.793Z,4.15
2023-11-30T00:12:57.627Z,4.08
2023-11-30T00:15:24.819Z,4.16
2023-11-30T00:17:51.694Z,4.16
2023-11-30T00:20:18.840Z,4.20
2023-11-30T00:22:47.220Z,4.18
2023-11-30T00:25:14.358Z,4.17
2023-11-30T00:27:41.171Z,4.20
2023-11-30T00:30:08.924Z,4.20
2023-11-30T00:32:36.915Z,4.23
2023-11-30T00:35:04.647Z,4.23
2023-11-30T00:37:31.469Z,4.19
2023-11-30T00:39:58.612Z,4.23
2023-11-30T00:42:26.819Z,4.23
2023-11-30T00:44:54.194Z,4.23
2023-11-30T00:47:21.004Z,4.23
2023-11-30T00:49:48.194Z,4.20
2023-11-30T00:52:15.017Z,4.23
2023-11-30T00:54:42.121Z,4.20
2023-11-30T00:57:08.933Z,4.22
2023-11-30T00:59:36.073Z,4.31
2023-11-30T01:02:02.914Z,4.26
2023-11-30T01:04:30.045Z,4.25
2023-11-30T01:06:56.885Z,4.29
2023-11-30T01:09:24.036Z,4.26
2023-11-30T01:11:50.932Z,4.25
2023-11-30T01:14:18.114Z,4.30
2023-11-30T01:16:46.079Z,4.25
2023-11-30T01:19:13.366Z,4.28
2023-11-30T01:21:40.302Z,4.25
2023-11-30T01:24:07.648Z,4.14
2023-11-30T01:26:34.464Z,4.00
2023-11-30T01:29:01.558Z,4.05
2023-11-30T01:31:28.376Z,4.09
2023-11-30T01:33:55.517Z,4.23
2023-11-30T01:36:22.430Z,4.27
2023-11-30T01:38:49.576Z,4.26
2023-11-30T01:41:16.653Z,4.31
2023-11-30T01:43:43.740Z,4.26
2023-11-30T01:46:11.044Z,4.26
2023-11-30T01:48:38.208Z,4.33
2023-11-30T01:51:06.774Z,4.33
2023-11-30T01:53:37.769Z,4.28
2023-11-30T01:56:05.323Z,4.17
2023-11-30T01:58:32.465Z,4.27
2023-11-30T02:01:00.124Z,4.37
2023-11-30T02:03:27.824Z,4.40
2023-11-30T02:05:54.720Z,4.48
2023-11-30T02:08:21.839Z,4.22
2023-11-30T02:10:48.623Z,4.29
2023-11-30T02:13:15.733Z,4.28
2023-11-30T02:15:42.607Z,4.20
2023-11-30T02:18:09.872Z,4.15
2023-11-30T02:20:36.773Z,4.17
2023-11-30T02:23:03.918Z,4.27
2023-11-30T02:25:30.692Z,4.34
2023-11-30T02:27:59.845Z,4.32
2023-11-30T02:30:27.045Z,4.37
2023-11-30T02:32:54.419Z,4.20
2023-11-30T02:35:21.423Z,4.05
2023-11-30T02:37:48.599Z,4.07
2023-11-30T02:40:15.487Z,4.15
2023-11-30T02:42:42.648Z,4.09
2023-11-30T02:45:10.269Z,4.01
2023-11-30T02:47:37.504Z,4.02
2023-11-30T02:50:04.769Z,3.98
2023-11-30T02:52:32.367Z,4.13
2023-11-30T02:54:59.148Z,4.19
2023-11-30T02:57:26.589Z,4.30
2023-11-30T02:59:53.431Z,4.38
2023-11-30T03:02:20.655Z,4.21
2023-11-30T03:04:47.841Z,4.08
2023-11-30T03:07:15.061Z,4.20
2023-11-30T03:09:41.879Z,4.30
2023-11-30T03:12:09.160Z,4.22
2023-11-30T03:14:36.101Z,4.11
2023-11-30T03:17:03.526Z,4.15
2023-11-30T03:19:30.324Z,4.26
2023-11-30T03:21:57.736Z,4.21
2023-11-30T03:24:24.593Z,4.10
2023-11-30T03:26:51.883Z,4.14
2023-11-30T03:29:18.712Z,4.12
2023-11-30T03:31:45.875Z,4.14
2023-11-30T03:34:12.723Z,4.09
2023-11-30T03:36:40.016Z,4.13
2023-11-30T03:39:07.070Z,4.12
2023-11-30T03:41:34.252Z,4.11
2023-11-30T03:44:01.093Z,4.13
2023-11-30T03:46:28.756Z,4.10
2023-11-30T03:48:55.674Z,4.19
2023-11-30T03:51:22.876Z,4.27
2023-11-30T03:53:49.772Z,4.07
2023-11-30T03:56:16.847Z,4.16
2023-11-30T03:58:43.878Z,4.19
2023-11-30T04:01:10.968Z,4.17
2023-11-30T04:03:37.948Z,4.18
2023-11-30T04:06:05.370Z,4.23
2023-11-30T04:08:32.204Z,4.16
2023-11-30T04:10:59.312Z,4.29
2023-11-30T04:13:26.667Z,4.25
2023-11-30T04:15:53.772Z,4.37
2023-11-30T04:18:20.740Z,4.31
2023-11-30T04:20:47.895Z,4.40
2023-11-30T04:23:14.860Z,4.33
2023-11-30T04:25:41.998Z,4.46
2023-11-30T04:28:09.964Z,4.48
2023-11-30T04:30:37.275Z,4.52
2023-11-30T04:33:05.252Z,4.54
2023-11-30T04:35:32.891Z,4.50
2023-11-30T04:37:59.801Z,4.51
2023-11-30T04:40:26.944Z,4.39
2023-11-30T04:42:53.876Z,4.47
2023-11-30T04:45:21.104Z,4.54
2023-11-30T04:47:47.941Z,4.58
2023-11-30T04:50:15.058Z,4.57
2023-11-30T04:52:41.909Z,4.62
2023-11-30T04:55:09.401Z,4.63
2023-11-30T04:57:36.375Z,4.66
2023-11-30T05:00:06.563Z,4.57
2023-11-30T05:02:34.370Z,4.61
2023-11-30T05:05:01.652Z,4.61
2023-11-30T05:07:28.597Z,4.67
2023-11-30T05:09:55.751Z,4.56
2023-11-30T05:12:22.551Z,4.64
2023-11-30T05:14:49.813Z,4.60
2023-11-30T05:17:16.599Z,4.58
2023-11-30T05:19:43.737Z,4.67
2023-11-30T05:22:12.438Z,4.65
2023-11-30T05:24:39.811Z,4.68
2023-11-30T05:27:06.750Z,4.65
2023-11-30T05:29:34.054Z,4.59
2023-11-30T05:32:00.906Z,4.65
2023-11-30T05:34:28.098Z,4.68
2023-11-30T05:36:54.910Z,4.76
2023-11-30T05:39:22.060Z,4.83
2023-11-30T05:41:48.873Z,4.87
2023-11-30T05:44:16.853Z,4.85
2023-11-30T05:46:43.803Z,4.78
2023-11-30T05:49:11.103Z,4.80
2023-11-30T05:51:37.964Z,4.78
2023-11-30T05:54:05.355Z,4.77
2023-11-30T05:56:32.202Z,4.77
2023-11-30T05:58:59.380Z,4.76
2023-11-30T06:01:26.491Z,4.78
2023-11-30T06:03:53.942Z,4.69
2023-11-30T06:06:21.025Z,4.72
2023-11-30T06:08:48.409Z,4.75
2023-11-30T06:11:18.273Z,4.74
2023-11-30T06:13:46.475Z,4.67
2023-11-30T06:16:13.434Z,4.73
2023-11-30T06:18:40.621Z,4.71
2023-11-30T06:21:10.586Z,4.72
2023-11-30T06:23:38.490Z,4.61
2023-11-30T06:26:06.249Z,4.68
2023-11-30T06:28:33.395Z,4.68
2023-11-30T06:31:00.203Z,4.66
2023-11-30T06:33:27.886Z,4.69
2023-11-30T06:35:54.834Z,4.65
2023-11-30T06:38:22.002Z,4.68
2023-11-30T06:40:50.203Z,4.68
2023-11-30T06:43:17.685Z,4.68
2023-11-30T06:45:44.717Z,4.67
2023-11-30T06:48:11.961Z,4.70
2023-11-30T06:50:38.816Z,4.66
2023-11-30T06:53:06.013Z,4.71
2023-11-30T06:55:32.952Z,4.69
2023-11-30T06:58:00.181Z,4.70
2023-11-30T07:00:28.180Z,4.73
2023-11-30T07:02:55.550Z,4.74
2023-11-30T07:05:22.444Z,4.72
2023-11-30T07:07:49.799Z,4.76
2023-11-30T07:10:16.757Z,4.73
2023-11-30T07:12:44.179Z,4.71
2023-11-30T07:15:11.161Z,4.80
2023-11-30T07:17:38.372Z,4.73
2023-11-30T07:20:05.919Z,4.71
2023-11-30T07:22:33.050Z,4.77
2023-11-30T07:24:59.883Z,4.74
2023-11-30T07:27:27.689Z,4.80
2023-11-30T07:29:54.993Z,4.79
2023-11-30T07:32:22.141Z,4.75
2023-11-30T07:34:49.497Z,4.76
2023-11-30T07:37:17.722Z,4.79
2023-11-30T07:39:45.388Z,4.87
2023-11-30T07:42:13.414Z,4.81
2023-11-30T07:44:41.039Z,4.87
2023-11-30T07:47:08.236Z,4.84
2023-11-30T07:49:35.063Z,4.95
2023-11-30T07:52:02.639Z,4.95
2023-11-30T07:54:29.713Z,4.85
2023-11-30T07:56:56.839Z,5.02
2023-11-30T07:59:23.710Z,4.93
2023-11-30T08:01:50.875Z,4.93
2023-11-30T08:04:17.915Z,5.08
2023-11-30T08:06:46.018Z,5.11
2023-11-30T08:09:14.711Z,5.06
2023-11-30T08:11:42.218Z,5.06
2023-11-30T08:14:10.197Z,5.05
2023-11-30T08:16:39.085Z,5.06
2023-11-30T08:19:07.676Z,5.11
2023-11-30T08:21:37.171Z,5.08
2023-11-30T08:24:05.308Z,5.12
2023-11-30T08:26:32.439Z,5.13
2023-11-30T08:28:59.228Z,5.12
2023-11-30T08:31:26.824Z,5.13
2023-11-30T08:33:53.725Z,5.11
2023-11-30T08:36:21.008Z,5.23
2023-11-30T08:38:47.842Z,5.38
2023-11-30T08:41:14.948Z,5.42
2023-11-30T08:43:42.035Z,5.41
2023-11-30T08:46:09.573Z,5.39
2023-11-30T08:48:36.469Z,5.36
2023-11-30T08:51:03.756Z,5.34
2023-11-30T08:53:30.742Z,5.35
2023-11-30T08:55:57.973Z,5.27
2023-11-30T08:58:24.800Z,5.27
2023-11-30T09:00:51.898Z,5.33
2023-11-30T09:03:19.431Z,5.33
2023-11-30T09:05:46.721Z,5.36
2023-11-30T09:08:13.541Z,5.29
2023-11-30T09:10:40.853Z,5.29
2023-11-30T09:13:09.235Z,5.25
2023-11-30T09:15:37.414Z,5.25
2023-11-30T09:18:04.701Z,5.24
2023-11-30T09:20:31.994Z,5.26
2023-11-30T09:22:58.889Z,5.19
2023-11-30T09:25:26.287Z,5.19
2023-11-30T09:27:53.191Z,5.23
2023-11-30T09:30:20.335Z,5.18
2023-11-30T09:32:47.286Z,5.24
2023-11-30T09:35:14.476Z,5.33
2023-11-30T09:37:41.394Z,5.41
2023-11-30T09:40:10.572Z,5.46
2023-11-30T09:42:37.438Z,5.39
2023-11-30T09:45:05.581Z,5.42
2023-11-30T09:47:32.641Z,5.41
2023-11-30T09:50:01.897Z,5.41
2023-11-30T09:52:29.795Z,5.43
2023-11-30T09:54:57.772Z,5.44
2023-11-30T09:57:24.709Z,5.51
2023-11-30T09:59:51.934Z,5.48
2023-11-30T10:02:20.242Z,5.49
2023-11-30T10:04:47.537Z,5.49
2023-11-30T10:07:14.456Z,5.51
2023-11-30T10:09:41.730Z,5.55
2023-11-30T10:12:08.847Z,5.52
2023-11-30T10:14:36.054Z,5.50
2023-11-30T10:17:03.071Z,5.54
2023-11-30T10:19:31.803Z,5.56
2023-11-30T10:21:58.829Z,5.51
2023-11-30T10:24:26.705Z,5.56
2023-11-30T10:26:53.632Z,5.55
2023-11-30T10:29:22.171Z,5.57
2023-11-30T10:31:50.853Z,5.59
2023-11-30T10:34:20.350Z,5.62
2023-11-30T10:36:47.240Z,5.62
2023-11-30T10:39:24.510Z,5.65
2023-11-30T10:41:56.083Z,5.64
2023-11-30T10:44:27.711Z,5.61
2023-11-30T10:46:59.574Z,5.64
2023-11-30T10:49:28.412Z,5.62
2023-11-30T10:51:59.062Z,5.69
2023-11-30T10:54:32.981Z,5.67
2023-11-30T10:57:00.844Z,5.61
2023-11-30T10:59:31.640Z,5.65
2023-11-30T11:01:58.853Z,5.67
2023-11-30T11:04:29.257Z,5.70
2023-11-30T11:07:15.120Z,5.71
2023-11-30T11:09:51.369Z,5.64
2023-11-30T11:12:24.726Z,5.71
2023-11-30T11:14:54.146Z,5.68
2023-11-30T11:17:21.688Z,5.71
2023-11-30T11:19:48.890Z,5.72
2023-11-30T11:22:15.768Z,5.71
2023-11-30T11:24:43.085Z,5.73
2023-11-30T11:27:10.782Z,5.72
2023-11-30T11:29:42.571Z,5.76
2023-11-30T11:32:12.376Z,5.71
2023-11-30T11:34:39.481Z,5.73
2023-11-30T11:37:08.316Z,5.70
2023-11-30T11:39:35.628Z,5.77
2023-11-30T11:42:03.619Z,5.79
2023-11-30T11:44:30.835Z,5.81
2023-11-30T11:46:57.663Z,5.80
2023-11-30T11:49:24.940Z,5.83
2023-11-30T11:51:51.927Z,5.80
2023-11-30T11:54:19.969Z,5.86
2023-11-30T11:56:49.849Z,5.81
2023-11-30T11:59:33.188Z,5.87
2023-11-30T12:02:01.025Z,5.89
2023-11-30T12:04:35.191Z,5.89
2023-11-30T12:07:15.857Z,5.87
2023-11-30T12:09:43.388Z,5.83
2023-11-30T12:12:10.276Z,5.90
2023-11-30T12:14:37.447Z,5.81
2023-11-30T12:17:04.372Z,5.81
2023-11-30T12:19:31.453Z,5.82
2023-11-30T12:21:58.378Z,5.89
2023-11-30T12:24:25.620Z,5.86
2023-11-30T12:26:52.547Z,5.81
2023-11-30T12:29:19.652Z,5.80
2023-11-30T12:31:46.477Z,5.84
2023-11-30T12:34:13.754Z,5.84
2023-11-30T12:36:40.667Z,5.89
2023-11-30T12:39:08.424Z,5.90
2023-11-30T12:41:35.355Z,5.86
2023-11-30T12:44:04.914Z,5.91
2023-11-30T12:46:32.526Z,5.91
2023-11-30T12:48:59.777Z,5.96
2023-11-30T12:51:26.660Z,5.97
2023-11-30T12:53:53.878Z,5.95
2023-11-30T12:56:20.864Z,5.91
2023-11-30T12:58:48.267Z,5.87
2023-11-30T13:01:15.195Z,5.95
2023-11-30T13:03:42.929Z,5.90
2023-11-30T13:06:11.255Z,5.91
2023-11-30T13:08:38.490Z,5.90
2023-11-30T13:11:05.471Z,5.90
2023-11-30T13:13:41.866Z,5.94
2023-11-30T13:16:10.797Z,5.89
2023-11-30T13:18:38.338Z,5.81
2023-11-30T13:21:06.386Z,5.87
2023-11-30T13:23:33.663Z,5.90
2023-11-30T13:26:00.564Z,5.94
2023-11-30T13:28:35.422Z,5.89
2023-11-30T13:31:07.684Z,5.88
2023-11-30T13:33:35.521Z,5.88
2023-11-30T13:36:02.375Z,5.95
2023-11-30T13:38:29.543Z,5.88
2023-11-30T13:40:56.357Z,5.94
2023-11-30T13:43:24.194Z,5.86
2023-11-30T13:45:52.172Z,5.92
2023-11-30T13:48:19.563Z,5.86
2023-11-30T13:50:53.362Z,5.87
2023-11-30T13:53:23.678Z,5.87
2023-11-30T13:55:50.525Z,5.97
2023-11-30T13:58:17.667Z,5.88
2023-11-30T14:00:44.673Z,5.86
2023-11-30T14:03:12.427Z,5.88
2023-11-30T14:05:39.448Z,5.94
2023-11-30T14:08:06.803Z,5.85
2023-11-30T14:10:33.713Z,5.86
2023-11-30T14:13:00.997Z,5.84
2023-11-30T14:15:27.899Z,5.85
2023-11-30T14:17:55.074Z,5.89
2023-11-30T14:20:22.314Z,5.95
2023-11-30T14:22:49.645Z,5.92
2023-11-30T14:25:16.695Z,5.91
2023-11-30T14:27:46.803Z,6.00
2023-11-30T14:30:14.513Z,6.01
2023-11-30T14:32:42.206Z,5.99
2023-11-30T14:35:09.367Z,5.99
2023-11-30T14:37:36.565Z,5.92
2023-11-30T14:40:05.188Z,5.99
2023-11-30T14:42:32.983Z,5.92
2023-11-30T14:44:59.935Z,5.95
2023-11-30T14:47:28.090Z,5.94
2023-11-30T14:49:56.105Z,5.97
2023-11-30T14:52:23.915Z,5.92
2023-11-30T14:54:53.594Z,5.91
2023-11-30T14:57:20.999Z,5.88
2023-11-30T14:59:50.829Z,5.89
2023-11-30T15:02:18.581Z,5.89
2023-11-30T15:04:45.556Z,5.90
2023-11-30T15:07:12.630Z,5.88
2023-11-30T15:09:41.559Z,5.91
2023-11-30T15:12:09.081Z,5.94
2023-11-30T15:14:35.916Z,5.93
2023-11-30T15:17:03.302Z,5.96
2023-11-30T15:19:30.140Z,5.88
2023-11-30T15:21:57.261Z,5.91
2023-11-30T15:24:24.123Z,5.88
2023-11-30T15:26:51.512Z,5.89
2023-11-30T15:29:18.343Z,5.87
2023-11-30T15:31:45.541Z,5.89
2023-11-30T15:34:12.352Z,5.89
2023-11-30T15:36:42.819Z,5.91
2023-11-30T15:39:14.697Z,5.92
2023-11-30T15:41:47.036Z,5.92
2023-11-30T15:44:14.200Z,5.89
2023-11-30T15:46:44.704Z,5.91
2023-11-30T15:49:14.493Z,5.92
2023-11-30T15:51:43.174Z,5.91
2023-11-30T15:54:10.942Z,5.89
2023-11-30T15:56:38.427Z,5.87
2023-11-30T15:59:05.292Z,5.90
2023-11-30T16:01:32.545Z,5.91
2023-11-30T16:04:00.403Z,5.88
2023-11-30T16:06:27.808Z,5.89
2023-11-30T16:08:55.263Z,5.90
2023-11-30T16:11:22.370Z,5.87
2023-11-30T16:13:49.457Z,5.85
2023-11-30T16:16:17.065Z,5.84
2023-11-30T16:18:43.989Z,5.77
2023-11-30T16:21:18.650Z,5.81
2023-11-30T16:23:46.380Z,5.81
2023-11-30T16:26:17.810Z,5.78
2023-11-30T16:28:45.106Z,5.80
2023-11-30T16:31:12.508Z,5.81
2023-11-30T16:33:40.424Z,5.80
2023-11-30T16:36:08.788Z,5.81
2023-11-30T16:38:36.153Z,5.81
2023-11-30T16:41:03.967Z,5.85
2023-11-30T16:43:32.454Z,5.83
2023-11-30T16:45:59.733Z,5.83
2023-11-30T16:48:27.011Z,5.81
2023-11-30T16:50:54.142Z,5.83
2023-11-30T16:53:20.974Z,5.84
2023-11-30T16:55:48.587Z,5.84
2023-11-30T16:58:15.393Z,5.79
2023-11-30T17:00:42.760Z,5.85
2023-11-30T17:03:09.654Z,5.82
2023-11-30T17:05:38.866Z,5.84
2023-11-30T17:08:05.717Z,5.84
2023-11-30T17:10:32.839Z,5.84
2023-11-30T17:12:59.710Z,5.80
2023-11-30T17:15:27.081Z,5.78
2023-11-30T17:17:53.957Z,5.80
2023-11-30T17:20:21.039Z,5.82
2023-11-30T17:22:50.727Z,5.83
2023-11-30T17:25:17.943Z,5.81
2023-11-30T17:27:44.783Z,5.82
2023-11-30T17:30:12.262Z,5.79
2023-11-30T17:32:39.183Z,5.76
2023-11-30T17:35:07.025Z,5.80
2023-11-30T17:37:33.930Z,5.78
2023-11-30T17:40:01.535Z,5.80
2023-11-30T17:42:28.526Z,5.81
2023-11-30T17:44:55.839Z,5.79
2023-11-30T17:47:23.144Z,5.80
2023-11-30T17:49:50.289Z,5.83
2023-11-30T17:52:17.244Z,5.78
2023-11-30T17:54:44.462Z,5.75
2023-11-30T17:57:11.348Z,5.76
2023-11-30T17:59:38.579Z,5.72
2023-11-30T18:02:05.647Z,5.74
2023-11-30T18:04:33.280Z,5.76
2023-11-30T18:07:00.190Z,5.76
2023-11-30T18:09:28.038Z,5.80
2023-11-30T18:11:55.095Z,5.75
2023-11-30T18:14:23.591Z,5.77
2023-11-30T18:16:50.490Z,5.74
2023-11-30T18:19:17.720Z,5.76
2023-11-30T18:21:44.559Z,5.75
2023-11-30T18:24:11.806Z,5.75
2023-11-30T18:26:38.604Z,5.74
2023-11-30T18:29:06.075Z,5.73
2023-11-30T18:31:33.347Z,5.69
2023-11-30T18:34:00.600Z,5.73
2023-11-30T18:36:27.595Z,5.74
2023-11-30T18:38:55.012Z,5.75
2023-11-30T18:41:22.069Z,5.74
2023-11-30T18:43:49.927Z,5.75
2023-11-30T18:46:17.099Z,5.75
2023-11-30T18:48:44.680Z,5.74
2023-11-30T18:51:11.641Z,5.73
2023-11-30T18:53:39.016Z,5.75
2023-11-30T18:56:06.204Z,5.78
2023-11-30T18:58:33.405Z,5.76
2023-11-30T19:01:00.307Z,5.74
2023-11-30T19:03:27.616Z,5.71
2023-11-30T19:05:55.047Z,5.70
2023-11-30T19:08:22.227Z,5.76
2023-11-30T19:10:49.070Z,5.73
2023-11-30T19:13:16.311Z,5.70
2023-11-30T19:15:43.334Z,5.71
2023-11-30T19:18:10.940Z,5.67
2023-11-30T19:20:38.339Z,5.66
2023-11-30T19:23:05.693Z,5.70
2023-11-30T19:25:35.331Z,5.69
2023-11-30T19:28:02.585Z,5.71
2023-11-30T19:30:29.599Z,5.66
2023-11-30T19:32:56.777Z,5.68
2023-11-30T19:35:23.590Z,5.71
2023-11-30T19:37:50.748Z,5.75
2023-11-30T19:40:17.826Z,5.70
2023-11-30T19:42:44.957Z,5.66
2023-11-30T19:45:12.015Z,5.66
2023-11-30T19:47:39.543Z,5.67
2023-11-30T19:50:07.175Z,5.65
2023-11-30T19:52:36.279Z,5.65
2023-11-30T19:55:04.859Z,5.63
2023-11-30T19:57:32.096Z,5.61
2023-11-30T19:59:59.014Z,5.64
2023-11-30T20:02:26.456Z,5.66
2023-11-30T20:04:53.376Z,5.64
2023-11-30T20:07:20.707Z,5.67
2023-11-30T20:09:47.632Z,5.66
2023-11-30T20:12:14.790Z,5.66
2023-11-30T20:14:42.188Z,5.65
2023-11-30T20:17:09.411Z,5.65
2023-11-30T20:19:36.472Z,5.58
2023-11-30T20:22:04.051Z,5.57
2023-11-30T20:24:35.092Z,5.58
2023-11-30T20:27:08.658Z,5.61
2023-11-30T20:29:35.582Z,5.61
2023-11-30T20:32:02.840Z,5.62
2023-11-30T20:34:29.719Z,5.60
2023-11-30T20:36:57.517Z,5.62
2023-11-30T20:39:25.907Z,5.62
2023-11-30T20:41:53.236Z,5.61
2023-11-30T20:44:20.487Z,5.59
2023-11-30T20:46:47.636Z,5.62
2023-11-30T20:49:15.023Z,5.60
2023-11-30T20:51:42.279Z,5.61
2023-11-30T20:54:10.243Z,5.63
2023-11-30T20:56:37.576Z,5.58
2023-11-30T20:59:04.400Z,5.62
2023-11-30T21:01:32.265Z,5.59
2023-11-30T21:12:15.616Z,5.57
2023-11-30T21:14:43.141Z,5.60
2023-11-30T21:17:10.478Z,5.56
2023-11-30T21:19:37.400Z,5.61
2023-11-30T21:22:05.005Z,5.60
2023-11-30T21:24:34.252Z,5.57
2023-11-30T21:27:01.559Z,5.61
2023-11-30T21:29:28.466Z,5.58
2023-11-30T21:31:55.721Z,5.62
2023-11-30T21:34:22.646Z,5.62
2023-11-30T21:36:50.211Z,5.62
2023-11-30T21:39:17.141Z,5.58
2023-11-30T21:41:44.345Z,5.60
2023-11-30T21:44:11.292Z,5.62
2023-11-30T21:46:38.497Z,5.61
2023-11-30T21:49:05.735Z,5.62
2023-11-30T21:51:33.372Z,5.59
2023-11-30T21:54:03.211Z,5.63
2023-11-30T21:56:30.437Z,5.61
2023-11-30T21:58:57.374Z,5.63
2023-11-30T22:01:24.786Z,5.62
2023-11-30T22:03:51.816Z,5.62
2023-11-30T22:06:19.076Z,5.60
2023-11-30T22:08:49.919Z,5.58
2023-11-30T22:11:18.330Z,5.62
2023-11-30T22:13:45.933Z,5.62
2023-11-30T22:16:15.035Z,5.64
2023-11-30T22:18:43.720Z,5.60
2023-11-30T22:21:10.976Z,5.59
2023-11-30T22:23:37.887Z,5.56
2023-11-30T22:26:05.319Z,5.58
2023-11-30T22:28:32.290Z,5.57
2023-11-30T22:31:00.004Z,5.51
2023-11-30T22:33:27.034Z,5.55
2023-11-30T22:35:54.354Z,5.57
2023-11-30T22:38:21.877Z,5.56
2023-11-30T22:40:49.157Z,5.54
2023-11-30T22:43:16.005Z,5.56
2023-11-30T22:45:43.291Z,5.58
2023-11-30T22:48:10.240Z,5.57
2023-11-30T22:50:37.565Z,5.56
2023-11-30T22:53:04.654Z,5.54
2023-11-30T22:55:32.016Z,5.55
2023-11-30T22:57:58.989Z,5.58
2023-11-30T23:00:27.599Z,5.57
2023-11-30T23:02:54.694Z,5.57
2023-11-30T23:05:22.191Z,5.60
2023-11-30T23:07:49.198Z,5.58
2023-11-30T23:10:18.695Z,5.65
2023-11-30T23:12:46.232Z,5.58
2023-11-30T23:15:13.620Z,5.60
2023-11-30T23:17:40.701Z,5.61
2023-11-30T23:20:08.598Z,5.62
2023-11-30T23:22:36.085Z,5.61
2023-11-30T23:25:06.594Z,5.62
2023-11-30T23:27:33.603Z,5.55
2023-11-30T23:30:01.092Z,5.57
2023-11-30T23:32:28.103Z,5.62
2023-11-30T23:34:55.390Z,5.59
2023-11-30T23:37:22.426Z,5.56
2023-11-30T23:39:49.736Z,5.54
2023-11-30T23:42:17.075Z,5.59
2023-11-30T23:44:44.463Z,5.61
2023-11-30T23:47:11.619Z,5.63
2023-11-30T23:49:38.945Z,5.62
2023-11-30T23:52:06.524Z,5.62
2023-11-30T23:54:33.904Z,5.63
2023-11-30T23:57:00.919Z,5.61
2023-11-30T23:59:28.185Z,5.64
